Time;durP1;ratioP1;P1;durP2;ratioP2;P2;SDS_P1;SDS_P2;PMS_P1;PMS_P2;Temp;Humidity;BMP_temperature;BMP_pressure;BME280_temperature;BME280_humidity;BME280_pressure;Samples;Min_cycle;Max_cycle;Signal;HPM_P1;HPM_P2
2022/03/08 00:01:39;;;;;;;49.42;19.10;;;;;;;;;;4972041;28;20094;-62
2022/03/08 00:04:04;;;;;;;44.22;19.58;;;;;;;;;;4971614;28;20428;-62
2022/03/08 00:06:30;;;;;;;44.88;17.10;;;;;;;;;;4971514;28;20029;-62
2022/03/08 00:08:56;;;;;;;43.80;17.05;;;;;;;;;;4971745;28;20401;-62
2022/03/08 00:11:21;;;;;;;50.42;18.80;;;;;;;;;;4971572;28;20391;-62
2022/03/08 00:13:50;;;;;;;45.78;18.17;;;;;;;;;;4972434;28;20092;-62
2022/03/08 00:16:16;;;;;;;40.92;18.00;;;;;;;;;;4971820;28;20124;-61
2022/03/08 00:18:44;;;;;;;42.38;18.38;;;;;;;;;;4971240;28;20401;-62
2022/03/08 00:21:09;;;;;;;44.28;18.17;;;;;;;;;;4971161;28;20523;-62
2022/03/08 00:23:35;;;;;;;45.90;17.92;;;;;;;;;;4971464;28;20478;-62
2022/03/08 00:26:00;;;;;;;45.88;18.85;;;;;;;;;;4971351;28;20026;-62
2022/03/08 00:28:26;;;;;;;47.75;18.35;;;;;;;;;;4972092;28;20401;-61
2022/03/08 00:30:52;;;;;;;37.55;17.95;;;;;;;;;;4971366;28;20500;-62
2022/03/08 00:33:17;;;;;;;48.58;19.23;;;;;;;;;;4970784;28;20336;-62
2022/03/08 00:35:43;;;;;;;44.50;17.27;;;;;;;;;;4971609;28;20100;-62
2022/03/08 00:38:08;;;;;;;43.35;18.33;;;;;;;;;;4971378;28;20383;-62
2022/03/08 00:40:33;;;;;;;41.33;16.83;;;;;;;;;;4972234;28;20405;-62
2022/03/08 00:42:59;;;;;;;43.42;18.73;;;;;;;;;;4970674;28;20349;-62
2022/03/08 00:45:25;;;;;;;43.80;18.38;;;;;;;;;;4971504;28;20325;-62
2022/03/08 00:47:50;;;;;;;39.55;17.13;;;;;;;;;;4970955;28;20345;-61
2022/03/08 00:50:21;;;;;;;46.03;17.40;;;;;;;;;;4971504;28;20447;-62
2022/03/08 00:52:47;;;;;;;45.05;16.40;;;;;;;;;;2303896;28;10002024;-63
2022/03/08 00:55:13;;;;;;;39.58;16.08;;;;;;;;;;4917972;28;20526;-62
2022/03/08 00:57:39;;;;;;;34.35;15.38;;;;;;;;;;4951395;28;20333;-62
2022/03/08 01:00:07;;;;;;;36.53;15.02;;;;;;;;;;4953172;28;20041;-62
2022/03/08 01:02:32;;;;;;;41.13;17.13;;;;;;;;;;4962192;28;20499;-62
2022/03/08 01:04:57;;;;;;;44.60;15.63;;;;;;;;;;4970639;28;20413;-62
2022/03/08 01:07:23;;;;;;;39.03;15.65;;;;;;;;;;4970522;28;20372;-62
2022/03/08 01:09:48;;;;;;;43.83;15.98;;;;;;;;;;4970524;28;20444;-62
2022/03/08 01:12:14;;;;;;;40.90;15.13;;;;;;;;;;4972326;28;20440;-62
2022/03/08 01:14:39;;;;;;;37.28;14.90;;;;;;;;;;4970445;28;20455;-62
2022/03/08 01:17:05;;;;;;;44.88;16.20;;;;;;;;;;4969969;28;20464;-62
2022/03/08 01:19:30;;;;;;;42.28;16.85;;;;;;;;;;4970722;28;20298;-62
2022/03/08 01:21:56;;;;;;;38.10;16.90;;;;;;;;;;4969862;28;20348;-62
2022/03/08 01:24:21;;;;;;;37.13;15.60;;;;;;;;;;4970945;28;20339;-62
2022/03/08 01:26:46;;;;;;;35.75;14.48;;;;;;;;;;4971523;28;20455;-62
2022/03/08 01:29:12;;;;;;;42.78;14.90;;;;;;;;;;4970424;28;20364;-61
2022/03/08 01:31:37;;;;;;;32.22;15.15;;;;;;;;;;4970147;28;20030;-62
2022/03/08 01:34:03;;;;;;;41.30;15.88;;;;;;;;;;4970131;28;20052;-62
2022/03/08 01:36:28;;;;;;;45.58;15.70;;;;;;;;;;4969619;28;20344;-62
2022/03/08 01:38:53;;;;;;;40.22;14.25;;;;;;;;;;4970185;28;20321;-61
2022/03/08 01:41:19;;;;;;;37.63;14.98;;;;;;;;;;4969716;28;20446;-62
2022/03/08 01:43:47;;;;;;;36.30;15.05;;;;;;;;;;4969733;28;20063;-62
2022/03/08 01:46:14;;;;;;;35.97;15.07;;;;;;;;;;4983785;28;20307;-62
2022/03/08 01:48:39;;;;;;;39.03;14.30;;;;;;;;;;4970255;28;20141;-62
2022/03/08 01:51:05;;;;;;;30.20;13.32;;;;;;;;;;4970136;28;20061;-62
2022/03/08 01:53:32;;;;;;;35.88;13.98;;;;;;;;;;4951770;28;20411;-62
2022/03/08 01:55:57;;;;;;;38.92;14.93;;;;;;;;;;4952602;28;20048;-62
2022/03/08 01:58:22;;;;;;;36.50;13.15;;;;;;;;;;4969572;28;20416;-61
2022/03/08 02:00:48;;;;;;;35.90;13.98;;;;;;;;;;4969763;28;20393;-62
2022/03/08 02:03:13;;;;;;;33.22;13.48;;;;;;;;;;4969455;28;20455;-62
2022/03/08 02:05:38;;;;;;;36.53;14.65;;;;;;;;;;4970242;28;20500;-62
2022/03/08 02:08:04;;;;;;;36.17;14.30;;;;;;;;;;4970945;28;20341;-62
2022/03/08 02:10:29;;;;;;;29.75;13.88;;;;;;;;;;4969333;28;20471;-62
2022/03/08 02:12:55;;;;;;;36.92;13.60;;;;;;;;;;4969208;28;20453;-61
2022/03/08 02:15:23;;;;;;;37.00;14.57;;;;;;;;;;4970556;28;20344;-62
2022/03/08 02:17:49;;;;;;;37.38;14.50;;;;;;;;;;4969236;28;20427;-62
2022/03/08 02:20:15;;;;;;;34.15;13.50;;;;;;;;;;4969528;28;20454;-62
2022/03/08 02:22:41;;;;;;;32.55;11.93;;;;;;;;;;4970533;28;20480;-62
2022/03/08 02:25:07;;;;;;;28.50;12.57;;;;;;;;;;4969003;28;20474;-62
2022/03/08 02:27:33;;;;;;;31.83;12.57;;;;;;;;;;4970396;28;20415;-63
2022/03/08 02:29:59;;;;;;;33.78;12.48;;;;;;;;;;4970644;28;20064;-64
2022/03/08 02:32:24;;;;;;;36.25;13.10;;;;;;;;;;4969308;28;20365;-61
2022/03/08 02:34:49;;;;;;;38.55;12.95;;;;;;;;;;4968786;28;20345;-62
2022/03/08 02:37:15;;;;;;;35.72;13.13;;;;;;;;;;4969204;28;20318;-62
2022/03/08 02:39:40;;;;;;;34.25;13.45;;;;;;;;;;4969060;28;20397;-63
2022/03/08 02:42:06;;;;;;;41.45;13.13;;;;;;;;;;4970467;28;20129;-62
2022/03/08 02:44:32;;;;;;;27.80;12.82;;;;;;;;;;4968890;28;20437;-62
2022/03/08 02:47:04;;;;;;;32.45;12.60;;;;;;;;;;4969310;28;20309;-61
2022/03/08 02:49:30;;;;;;;28.02;12.20;;;;;;;;;;4969155;28;20400;-62
2022/03/08 02:51:56;;;;;;;29.92;12.23;;;;;;;;;;4968707;28;20476;-62
2022/03/08 02:54:22;;;;;;;29.52;13.27;;;;;;;;;;4968955;28;20336;-62
2022/03/08 02:56:47;;;;;;;32.08;13.00;;;;;;;;;;4972075;28;20297;-61
2022/03/08 02:59:19;;;;;;;33.35;12.90;;;;;;;;;;4972877;28;20428;-63
2022/03/08 03:01:44;;;;;;;27.30;12.18;;;;;;;;;;4972642;28;20325;-61
2022/03/08 03:04:09;;;;;;;37.70;14.45;;;;;;;;;;4972795;28;20352;-62
2022/03/08 03:06:35;;;;;;;31.38;12.60;;;;;;;;;;4973772;28;20452;-62
2022/03/08 03:09:01;;;;;;;38.88;13.60;;;;;;;;;;4973720;28;20364;-62
2022/03/08 03:11:27;;;;;;;37.85;12.80;;;;;;;;;;4987838;28;20360;-62
2022/03/08 03:13:52;;;;;;;37.70;13.20;;;;;;;;;;4973690;28;20459;-62
2022/03/08 03:16:17;;;;;;;32.85;13.30;;;;;;;;;;4973617;28;20501;-62
2022/03/08 03:18:43;;;;;;;35.92;13.50;;;;;;;;;;4972738;28;20097;-62
2022/03/08 03:21:08;;;;;;;35.28;14.88;;;;;;;;;;4972966;28;20413;-62
2022/03/08 03:23:33;;;;;;;39.75;13.27;;;;;;;;;;4972641;28;20387;-62
2022/03/08 03:25:58;;;;;;;33.42;13.60;;;;;;;;;;4974043;28;20516;-62
2022/03/08 03:28:24;;;;;;;33.70;13.70;;;;;;;;;;4972625;28;20406;-61
2022/03/08 03:30:49;;;;;;;35.78;13.80;;;;;;;;;;4973484;28;20466;-62
2022/03/08 03:33:14;;;;;;;39.30;14.02;;;;;;;;;;4973295;28;20522;-62
2022/03/08 03:35:40;;;;;;;39.50;13.45;;;;;;;;;;4972214;28;20444;-62
2022/03/08 03:38:05;;;;;;;39.28;13.00;;;;;;;;;;4972207;28;20322;-62
2022/03/08 03:40:30;;;;;;;33.83;13.77;;;;;;;;;;4972366;28;20433;-62
2022/03/08 03:42:56;;;;;;;45.45;14.40;;;;;;;;;;4972442;28;20365;-62
2022/03/08 03:45:21;;;;;;;44.85;14.55;;;;;;;;;;4972655;28;20317;-62
2022/03/08 03:47:46;;;;;;;34.90;12.77;;;;;;;;;;4972582;28;20420;-62
2022/03/08 03:50:12;;;;;;;43.70;15.43;;;;;;;;;;4972252;28;20397;-61
2022/03/08 03:52:37;;;;;;;37.97;14.43;;;;;;;;;;4971786;28;20357;-62
2022/03/08 03:55:05;;;;;;;38.13;14.43;;;;;;;;;;4972531;28;20041;-62
2022/03/08 03:57:30;;;;;;;38.05;14.13;;;;;;;;;;4972326;28;20440;-62
2022/03/08 03:59:55;;;;;;;36.70;12.27;;;;;;;;;;4972275;28;20402;-62
2022/03/08 04:02:21;;;;;;;35.55;13.70;;;;;;;;;;4973036;28;20475;-62
2022/03/08 04:04:46;;;;;;;39.42;14.52;;;;;;;;;;4971377;28;20464;-62
2022/03/08 04:07:11;;;;;;;33.95;14.18;;;;;;;;;;4971878;28;20445;-62
2022/03/08 04:09:37;;;;;;;36.03;14.27;;;;;;;;;;4970696;28;20437;-62
2022/03/08 04:12:03;;;;;;;40.00;13.43;;;;;;;;;;4973149;28;20431;-62
2022/03/08 04:14:28;;;;;;;36.45;13.75;;;;;;;;;;4973215;28;20468;-62
2022/03/08 04:16:53;;;;;;;39.60;13.85;;;;;;;;;;4971754;28;20425;-61
2022/03/08 04:19:19;;;;;;;41.42;14.38;;;;;;;;;;4971250;28;20376;-61
2022/03/08 04:21:44;;;;;;;38.80;14.05;;;;;;;;;;4972578;28;20084;-62
2022/03/08 04:24:09;;;;;;;34.83;13.57;;;;;;;;;;4971652;28;20514;-61
2022/03/08 04:26:35;;;;;;;35.17;13.80;;;;;;;;;;4972372;28;20464;-61
2022/03/08 04:29:00;;;;;;;41.85;14.70;;;;;;;;;;4971826;28;20447;-61
2022/03/08 04:31:25;;;;;;;32.25;14.15;;;;;;;;;;4972641;28;20448;-62
2022/03/08 04:33:51;;;;;;;32.80;12.38;;;;;;;;;;4971033;28;20352;-62
2022/03/08 04:36:16;;;;;;;39.15;14.23;;;;;;;;;;4970750;28;20345;-62
2022/03/08 04:38:41;;;;;;;40.95;14.52;;;;;;;;;;4971251;28;20033;-62
2022/03/08 04:41:07;;;;;;;33.83;13.52;;;;;;;;;;4972851;28;20025;-62
2022/03/08 04:43:33;;;;;;;37.13;13.90;;;;;;;;;;4970853;28;20441;-62
2022/03/08 04:45:58;;;;;;;34.85;13.90;;;;;;;;;;4971174;28;20545;-62
2022/03/08 04:48:24;;;;;;;38.85;14.48;;;;;;;;;;4970666;28;20425;-61
2022/03/08 04:50:49;;;;;;;39.22;14.80;;;;;;;;;;4971584;28;20341;-61
2022/03/08 04:53:14;;;;;;;36.20;14.95;;;;;;;;;;4970852;28;20466;-62
2022/03/08 04:55:40;;;;;;;42.17;14.65;;;;;;;;;;4970851;28;20375;-62
2022/03/08 04:58:05;;;;;;;41.15;14.52;;;;;;;;;;4970861;28;20435;-62
2022/03/08 05:00:32;;;;;;;37.13;13.68;;;;;;;;;;4970448;28;20461;-62
2022/03/08 05:02:57;;;;;;;39.33;13.43;;;;;;;;;;4971121;28;20440;-62
2022/03/08 05:05:23;;;;;;;32.92;13.48;;;;;;;;;;4970330;28;20379;-61
2022/03/08 05:07:48;;;;;;;34.97;13.07;;;;;;;;;;4970495;28;20460;-62
2022/03/08 05:10:14;;;;;;;40.55;13.05;;;;;;;;;;4970758;28;20433;-63
2022/03/08 05:12:39;;;;;;;39.53;13.07;;;;;;;;;;4970402;28;20505;-62
2022/03/08 05:15:06;;;;;;;39.80;14.60;;;;;;;;;;4970624;28;20112;-62
2022/03/08 05:17:31;;;;;;;37.28;13.80;;;;;;;;;;4952393;28;20215;-61
2022/03/08 05:19:56;;;;;;;32.90;12.88;;;;;;;;;;4970776;28;20053;-62
2022/03/08 05:22:22;;;;;;;33.20;13.52;;;;;;;;;;4970377;28;20322;-62
2022/03/08 05:24:48;;;;;;;38.78;12.77;;;;;;;;;;4970277;28;20444;-61
2022/03/08 05:27:13;;;;;;;33.58;12.35;;;;;;;;;;4970313;28;20425;-61
2022/03/08 05:29:38;;;;;;;28.95;12.13;;;;;;;;;;4970477;28;20057;-62
2022/03/08 05:32:04;;;;;;;33.08;12.63;;;;;;;;;;4971875;28;20445;-62
2022/03/08 05:34:29;;;;;;;41.97;13.35;;;;;;;;;;4971883;28;20317;-62
2022/03/08 05:36:56;;;;;;;41.15;14.63;;;;;;;;;;4969798;28;20048;-61
2022/03/08 05:39:21;;;;;;;35.95;13.20;;;;;;;;;;4970025;28;20480;-61
2022/03/08 05:41:46;;;;;;;41.58;13.52;;;;;;;;;;4969608;28;20515;-62
2022/03/08 05:44:12;;;;;;;30.08;12.48;;;;;;;;;;4970404;28;20323;-62
2022/03/08 05:46:37;;;;;;;32.47;13.15;;;;;;;;;;4971712;28;20370;-62
2022/03/08 05:49:03;;;;;;;32.63;13.18;;;;;;;;;;4971678;28;20108;-62
2022/03/08 05:51:28;;;;;;;27.45;13.65;;;;;;;;;;4970203;28;20119;-61
2022/03/08 05:53:53;;;;;;;28.20;12.55;;;;;;;;;;4969931;28;20087;-61
2022/03/08 05:56:19;;;;;;;33.97;11.75;;;;;;;;;;4969604;28;20471;-62
2022/03/08 05:58:44;;;;;;;31.55;12.88;;;;;;;;;;4969950;28;20340;-62
2022/03/08 06:01:09;;;;;;;25.95;13.38;;;;;;;;;;4969389;28;20322;-62
2022/03/08 06:03:35;;;;;;;34.55;12.40;;;;;;;;;;4969824;28;20100;-62
2022/03/08 06:06:00;;;;;;;32.97;13.57;;;;;;;;;;4969275;28;20375;-62
2022/03/08 06:08:25;;;;;;;31.13;13.43;;;;;;;;;;4970167;28;20444;-63
2022/03/08 06:10:50;;;;;;;30.67;13.82;;;;;;;;;;4969421;28;20546;-62
2022/03/08 06:13:16;;;;;;;31.55;12.73;;;;;;;;;;4969524;28;20445;-62
2022/03/08 06:15:41;;;;;;;33.92;14.07;;;;;;;;;;4968994;28;20425;-62
2022/03/08 06:18:07;;;;;;;29.80;12.80;;;;;;;;;;4969369;28;20104;-62
2022/03/08 06:20:32;;;;;;;28.08;12.73;;;;;;;;;;4968883;28;20337;-62
2022/03/08 06:22:57;;;;;;;27.33;12.02;;;;;;;;;;4969363;28;20056;-62
2022/03/08 06:25:24;;;;;;;32.75;12.73;;;;;;;;;;4969271;28;20571;-62
2022/03/08 06:27:49;;;;;;;31.45;12.45;;;;;;;;;;4969758;28;20048;-62
2022/03/08 06:30:14;;;;;;;26.48;12.90;;;;;;;;;;4969295;28;20045;-62
2022/03/08 06:32:40;;;;;;;30.38;13.48;;;;;;;;;;4968935;28;20052;-62
2022/03/08 06:35:05;;;;;;;29.45;11.98;;;;;;;;;;4969522;28;20399;-63
2022/03/08 06:37:31;;;;;;;28.25;11.98;;;;;;;;;;4968900;28;20026;-61
2022/03/08 06:39:56;;;;;;;27.15;12.10;;;;;;;;;;4970305;28;20460;-62
2022/03/08 06:42:21;;;;;;;28.40;12.38;;;;;;;;;;4970019;28;20278;-62
2022/03/08 06:44:47;;;;;;;31.13;12.30;;;;;;;;;;4968875;28;20537;-62
2022/03/08 06:47:12;;;;;;;30.92;12.98;;;;;;;;;;4967412;28;20443;-62
2022/03/08 06:49:39;;;;;;;28.17;11.57;;;;;;;;;;4969976;28;20151;-62
2022/03/08 06:52:05;;;;;;;33.50;12.02;;;;;;;;;;4968601;28;20424;-62
2022/03/08 06:54:30;;;;;;;26.48;12.23;;;;;;;;;;4969063;28;20487;-62
2022/03/08 06:56:56;;;;;;;36.25;12.13;;;;;;;;;;4970134;28;20424;-62
2022/03/08 06:59:21;;;;;;;26.27;12.68;;;;;;;;;;4969110;28;20456;-61
2022/03/08 07:01:47;;;;;;;29.65;13.43;;;;;;;;;;4969256;28;20091;-63
2022/03/08 07:04:13;;;;;;;21.02;10.95;;;;;;;;;;4969169;28;20389;-62
2022/03/08 07:06:39;;;;;;;28.30;12.43;;;;;;;;;;4969563;28;20409;-62
2022/03/08 07:09:04;;;;;;;26.42;12.10;;;;;;;;;;4968686;28;20417;-61
2022/03/08 07:11:31;;;;;;;30.45;11.98;;;;;;;;;;4968844;28;20452;-62
2022/03/08 07:13:56;;;;;;;28.45;12.07;;;;;;;;;;4968684;28;20511;-62
2022/03/08 07:16:21;;;;;;;33.47;13.10;;;;;;;;;;4969568;28;20455;-62
2022/03/08 07:18:47;;;;;;;28.25;10.85;;;;;;;;;;4968764;28;20112;-63
2022/03/08 07:21:12;;;;;;;28.73;12.50;;;;;;;;;;4969561;28;20316;-62
2022/03/08 07:23:38;;;;;;;32.30;11.80;;;;;;;;;;4970082;28;20030;-62
2022/03/08 07:26:03;;;;;;;26.00;11.52;;;;;;;;;;4970611;28;20025;-62
2022/03/08 07:28:29;;;;;;;25.50;10.90;;;;;;;;;;4968399;28;20464;-62
2022/03/08 07:30:54;;;;;;;27.58;11.65;;;;;;;;;;4968497;28;20516;-62
2022/03/08 07:33:19;;;;;;;24.00;11.40;;;;;;;;;;4968389;28;20172;-62
2022/03/08 07:35:45;;;;;;;27.70;10.95;;;;;;;;;;4969028;28;20057;-63
2022/03/08 07:38:10;;;;;;;23.27;10.25;;;;;;;;;;4969223;28;20421;-62
2022/03/08 07:40:36;;;;;;;24.13;11.10;;;;;;;;;;4968622;28;20083;-63
2022/03/08 07:43:02;;;;;;;28.05;10.20;;;;;;;;;;4968496;28;20503;-62
2022/03/08 07:45:28;;;;;;;29.48;10.40;;;;;;;;;;4972933;28;20056;-62
2022/03/08 07:47:54;;;;;;;27.45;12.20;;;;;;;;;;4972304;28;20679;-62
2022/03/08 07:50:19;;;;;;;23.58;11.30;;;;;;;;;;4971851;28;20425;-62
2022/03/08 07:52:45;;;;;;;26.52;13.75;;;;;;;;;;4971959;28;20563;-62
2022/03/08 07:55:10;;;;;;;20.75;10.57;;;;;;;;;;4971810;28;20033;-62
2022/03/08 07:57:36;;;;;;;27.65;10.98;;;;;;;;;;4971962;28;20465;-62
2022/03/08 08:00:04;;;;;;;20.10;9.57;;;;;;;;;;4971550;28;20102;-62
2022/03/08 08:02:29;;;;;;;24.30;10.07;;;;;;;;;;4972298;28;20336;-62
2022/03/08 08:04:56;;;;;;;28.25;11.82;;;;;;;;;;4971720;28;20034;-62
2022/03/08 08:07:21;;;;;;;22.58;9.95;;;;;;;;;;4972079;28;20099;-62
2022/03/08 08:09:47;;;;;;;24.75;10.43;;;;;;;;;;4971788;28;20461;-62
2022/03/08 08:12:12;;;;;;;19.67;9.18;;;;;;;;;;4971609;28;20393;-62
2022/03/08 08:14:38;;;;;;;26.38;10.27;;;;;;;;;;4987374;28;20411;-63
2022/03/08 08:17:03;;;;;;;19.67;9.55;;;;;;;;;;4973186;28;20449;-62
2022/03/08 08:19:28;;;;;;;23.33;9.70;;;;;;;;;;4971609;28;20535;-62
2022/03/08 08:21:54;;;;;;;19.45;10.02;;;;;;;;;;4972379;28;20179;-61
2022/03/08 08:24:19;;;;;;;20.35;9.80;;;;;;;;;;4972778;28;20471;-62
2022/03/08 08:26:45;;;;;;;22.00;9.95;;;;;;;;;;4971391;28;20547;-62
2022/03/08 08:29:10;;;;;;;20.20;9.13;;;;;;;;;;4971596;28;20441;-62
2022/03/08 08:31:36;;;;;;;23.65;9.23;;;;;;;;;;4971838;28;20440;-62
2022/03/08 08:34:01;;;;;;;23.73;9.05;;;;;;;;;;4971376;28;20360;-62
2022/03/08 08:36:26;;;;;;;21.45;8.82;;;;;;;;;;4970978;28;20364;-62
2022/03/08 08:38:52;;;;;;;21.35;8.90;;;;;;;;;;4971898;28;20401;-66
2022/03/08 08:41:17;;;;;;;24.50;8.73;;;;;;;;;;4971209;28;20382;-62
2022/03/08 08:43:43;;;;;;;19.10;9.57;;;;;;;;;;4970978;28;20338;-62
2022/03/08 08:46:08;;;;;;;18.70;9.18;;;;;;;;;;4971016;28;20403;-62
2022/03/08 08:48:35;;;;;;;24.92;8.60;;;;;;;;;;4970822;28;20388;-62
2022/03/08 08:51:00;;;;;;;17.67;8.57;;;;;;;;;;4971215;28;20321;-63
2022/03/08 08:53:26;;;;;;;19.63;8.60;;;;;;;;;;4970998;28;20030;-62
2022/03/08 08:55:52;;;;;;;17.02;8.10;;;;;;;;;;4970750;28;20345;-62
2022/03/08 08:58:17;;;;;;;17.50;7.53;;;;;;;;;;4970864;28;20368;-62
2022/03/08 09:00:43;;;;;;;17.95;8.43;;;;;;;;;;4970878;28;20059;-63
2022/03/08 09:03:14;;;;;;;16.80;8.02;;;;;;;;;;4971707;28;20417;-62
2022/03/08 09:05:44;;;;;;;16.98;8.68;;;;;;;;;;4970402;28;20026;-62
2022/03/08 09:08:10;;;;;;;18.60;8.70;;;;;;;;;;4970596;28;20488;-62
2022/03/08 09:10:35;;;;;;;15.95;8.20;;;;;;;;;;4970127;28;20386;-62
2022/03/08 09:13:01;;;;;;;17.48;7.68;;;;;;;;;;4970524;28;20479;-62
2022/03/08 09:15:27;;;;;;;17.70;6.90;;;;;;;;;;4970027;28;20099;-62
2022/03/08 09:17:52;;;;;;;21.83;7.85;;;;;;;;;;4970743;28;20375;-63
2022/03/08 09:20:17;;;;;;;19.55;7.97;;;;;;;;;;4972164;28;20521;-62
2022/03/08 09:22:43;;;;;;;16.13;7.32;;;;;;;;;;4970135;28;20512;-62
2022/03/08 09:25:09;;;;;;;16.38;7.53;;;;;;;;;;4970391;28;20329;-63
2022/03/08 09:27:34;;;;;;;19.77;7.43;;;;;;;;;;4970304;28;20444;-62
2022/03/08 09:30:04;;;;;;;16.13;7.05;;;;;;;;;;4970596;28;20439;-62
2022/03/08 09:32:30;;;;;;;17.20;6.95;;;;;;;;;;4970001;28;20056;-62
2022/03/08 09:34:55;;;;;;;16.08;7.90;;;;;;;;;;4971492;28;20026;-64
2022/03/08 09:37:20;;;;;;;19.00;6.85;;;;;;;;;;4970018;28;20487;-62
2022/03/08 09:39:46;;;;;;;15.98;7.13;;;;;;;;;;4969958;28;20436;-63
2022/03/08 09:42:11;;;;;;;15.20;6.68;;;;;;;;;;4969930;28;20496;-62
2022/03/08 09:44:37;;;;;;;15.50;6.95;;;;;;;;;;4969653;28;20073;-63
2022/03/08 09:47:03;;;;;;;19.10;7.30;;;;;;;;;;4970149;28;20396;-62
2022/03/08 09:49:28;;;;;;;13.07;6.53;;;;;;;;;;4971101;28;20452;-63
2022/03/08 09:51:54;;;;;;;19.63;7.65;;;;;;;;;;4970347;28;20084;-62
2022/03/08 09:54:19;;;;;;;13.60;6.43;;;;;;;;;;4970845;28;20421;-62
2022/03/08 09:56:45;;;;;;;15.90;6.68;;;;;;;;;;4969824;28;20413;-63
2022/03/08 09:59:15;;;;;;;13.85;6.95;;;;;;;;;;4969131;28;20082;-62
2022/03/08 10:01:40;;;;;;;12.65;5.85;;;;;;;;;;4969882;28;20353;-62
2022/03/08 10:04:07;;;;;;;13.70;6.82;;;;;;;;;;4969434;28;20372;-62
2022/03/08 10:06:40;;;;;;;14.38;6.50;;;;;;;;;;4968942;28;20536;-62
2022/03/08 10:09:25;;;;;;;16.35;6.00;;;;;;;;;;4969444;28;20360;-62
2022/03/08 10:11:51;;;;;;;11.68;5.85;;;;;;;;;;4969246;28;20389;-62
2022/03/08 10:14:41;;;;;;;14.43;6.15;;;;;;;;;;4969471;28;20030;-62
2022/03/08 10:17:09;;;;;;;16.08;6.53;;;;;;;;;;4970482;28;20487;-62
2022/03/08 10:19:47;;;;;;;10.60;5.63;;;;;;;;;;4969594;28;20052;-64
2022/03/08 10:22:30;;;;;;;14.80;5.75;;;;;;;;;;4969457;28;20049;-63
2022/03/08 10:25:15;;;;;;;14.60;6.82;;;;;;;;;;4969365;28;20348;-62
2022/03/08 10:27:45;;;;;;;13.65;6.57;;;;;;;;;;4968953;28;20029;-63
2022/03/08 10:30:13;;;;;;;15.30;6.18;;;;;;;;;;4965920;28;20045;-62
2022/03/08 10:32:39;;;;;;;11.77;5.55;;;;;;;;;;4970120;28;20034;-63
2022/03/08 10:35:05;;;;;;;12.70;6.18;;;;;;;;;;4969322;28;20341;-62
2022/03/08 10:37:35;;;;;;;15.05;5.93;;;;;;;;;;4969333;28;20044;-62
2022/03/08 10:40:08;;;;;;;9.90;5.85;;;;;;;;;;4969318;28;20353;-62
2022/03/08 10:42:36;;;;;;;10.90;5.43;;;;;;;;;;4969226;28;20448;-62
2022/03/08 10:45:08;;;;;;;15.50;6.00;;;;;;;;;;4969038;28;20344;-62
2022/03/08 10:47:45;;;;;;;9.05;4.95;;;;;;;;;;4968868;28;20487;-62
2022/03/08 10:50:12;;;;;;;11.15;4.97;;;;;;;;;;4969082;28;20433;-62
2022/03/08 10:52:39;;;;;;;12.50;5.85;;;;;;;;;;4970165;28;20306;-62
2022/03/08 10:55:19;;;;;;;11.45;4.95;;;;;;;;;;4969356;28;20464;-62
2022/03/08 10:57:54;;;;;;;11.48;4.97;;;;;;;;;;4968653;28;20512;-62
2022/03/08 11:00:40;;;;;;;11.05;4.82;;;;;;;;;;4968876;28;20375;-62
2022/03/08 11:03:13;;;;;;;9.27;4.50;;;;;;;;;;4968697;28;20344;-62
2022/03/08 11:05:39;;;;;;;8.45;4.55;;;;;;;;;;4969466;28;20404;-62
2022/03/08 11:08:06;;;;;;;11.18;5.72;;;;;;;;;;4969668;28;20446;-63
2022/03/08 11:10:32;;;;;;;13.77;5.40;;;;;;;;;;4968848;28;20464;-64
2022/03/08 11:12:58;;;;;;;10.30;4.45;;;;;;;;;;4969113;28;20522;-63
2022/03/08 11:15:25;;;;;;;9.10;4.05;;;;;;;;;;4968839;28;20175;-63
2022/03/08 11:17:53;;;;;;;9.82;5.25;;;;;;;;;;4971150;28;20540;-63
2022/03/08 11:20:20;;;;;;;6.88;4.00;;;;;;;;;;4972489;28;20520;-62
2022/03/08 11:22:48;;;;;;;10.20;4.90;;;;;;;;;;4972729;28;20368;-63
2022/03/08 11:25:18;;;;;;;10.82;5.05;;;;;;;;;;4973576;28;20047;-62
2022/03/08 11:27:46;;;;;;;8.93;4.60;;;;;;;;;;4972526;28;20364;-62
2022/03/08 11:30:16;;;;;;;10.63;4.65;;;;;;;;;;4954025;28;20364;-62
2022/03/08 11:33:02;;;;;;;9.77;5.03;;;;;;;;;;4954695;28;20095;-62
2022/03/08 11:35:46;;;;;;;6.75;3.92;;;;;;;;;;4987564;28;20368;-63
2022/03/08 11:38:13;;;;;;;8.60;4.03;;;;;;;;;;4972441;28;20111;-62
2022/03/08 11:40:47;;;;;;;9.38;4.60;;;;;;;;;;4972439;28;20051;-62
2022/03/08 11:43:12;;;;;;;12.02;4.07;;;;;;;;;;4972195;28;20441;-62
2022/03/08 11:45:37;;;;;;;11.75;4.90;;;;;;;;;;4972747;28;20471;-62
2022/03/08 11:48:09;;;;;;;11.35;3.90;;;;;;;;;;4972481;28;20526;-63
2022/03/08 11:50:36;;;;;;;6.93;3.63;;;;;;;;;;4972298;28;20437;-64
2022/03/08 11:53:09;;;;;;;10.95;4.50;;;;;;;;;;4972023;28;20464;-62
2022/03/08 11:55:58;;;;;;;8.23;4.07;;;;;;;;;;4972520;28;20428;-63
2022/03/08 11:58:43;;;;;;;6.80;3.47;;;;;;;;;;4972183;28;20360;-62
2022/03/08 12:01:21;;;;;;;12.43;4.00;;;;;;;;;;4971435;28;20455;-62
2022/03/08 12:03:53;;;;;;;7.88;3.92;;;;;;;;;;4971883;28;20025;-63
2022/03/08 12:06:29;;;;;;;10.35;4.55;;;;;;;;;;4971409;28;20332;-62
2022/03/08 12:09:09;;;;;;;12.90;4.38;;;;;;;;;;4973105;28;20403;-63
2022/03/08 12:11:39;;;;;;;9.20;4.70;;;;;;;;;;4972433;28;20510;-63
2022/03/08 12:14:11;;;;;;;7.88;3.28;;;;;;;;;;4972078;28;20524;-62
2022/03/08 12:16:39;;;;;;;9.23;4.18;;;;;;;;;;4971696;28;20397;-63
2022/03/08 12:19:05;;;;;;;9.70;4.13;;;;;;;;;;4972657;28;20368;-63
2022/03/08 12:21:34;;;;;;;9.00;4.47;;;;;;;;;;4973360;28;20029;-63
2022/03/08 12:24:08;;;;;;;10.33;4.80;;;;;;;;;;4971568;28;20361;-62
2022/03/08 12:26:34;;;;;;;9.10;4.00;;;;;;;;;;4972710;28;20627;-63
2022/03/08 12:29:15;;;;;;;8.70;3.90;;;;;;;;;;4970888;28;20440;-62
2022/03/08 12:31:59;;;;;;;7.47;3.72;;;;;;;;;;4971328;28;20473;-62
2022/03/08 12:34:37;;;;;;;6.68;3.60;;;;;;;;;;4971405;28;20129;-62
2022/03/08 12:37:03;;;;;;;7.13;3.88;;;;;;;;;;4972923;28;20371;-62
2022/03/08 12:39:47;;;;;;;8.10;3.45;;;;;;;;;;4971245;28;20063;-62
2022/03/08 12:42:31;;;;;;;5.80;3.08;;;;;;;;;;4971133;28;20440;-63
2022/03/08 12:45:01;;;;;;;8.88;3.97;;;;;;;;;;4971497;28;20365;-62
2022/03/08 12:47:27;;;;;;;;;;;;;;;;;;4971673;28;20356;-64
2022/03/08 12:49:54;;;;;;;7.32;3.55;;;;;;;;;;4971114;28;20320;-63
2022/03/08 12:52:20;;;;;;;7.50;3.70;;;;;;;;;;4971064;28;20096;-62
2022/03/08 12:54:47;;;;;;;7.95;3.30;;;;;;;;;;4971134;28;20033;-62
2022/03/08 12:57:14;;;;;;;10.90;3.92;;;;;;;;;;4971527;28;20376;-62
2022/03/08 12:59:50;;;;;;;9.25;3.50;;;;;;;;;;4972020;28;20420;-63
2022/03/08 13:02:17;;;;;;;7.18;3.53;;;;;;;;;;4952571;28;20033;-62
2022/03/08 13:04:43;;;;;;;7.68;3.70;;;;;;;;;;4986069;28;20413;-62
2022/03/08 13:07:13;;;;;;;7.45;3.05;;;;;;;;;;4952427;28;20433;-65
2022/03/08 13:09:53;;;;;;;8.98;3.60;;;;;;;;;;4970590;28;20436;-63
2022/03/08 13:12:21;;;;;;;6.90;3.17;;;;;;;;;;4970637;28;20372;-62
2022/03/08 13:15:05;;;;;;;6.93;3.85;;;;;;;;;;4971075;28;20368;-62
2022/03/08 13:17:31;;;;;;;9.38;3.80;;;;;;;;;;4970197;28;20429;-63
2022/03/08 13:19:56;;;;;;;7.35;3.35;;;;;;;;;;4970408;28;20436;-63
2022/03/08 13:22:22;;;;;;;8.13;3.45;;;;;;;;;;4985917;28;20530;-62
2022/03/08 13:25:10;;;;;;;8.20;3.70;;;;;;;;;;4952446;28;20333;-63
2022/03/08 13:27:57;;;;;;;8.82;3.90;;;;;;;;;;4970518;28;20327;-62
2022/03/08 13:30:37;;;;;;;6.18;3.35;;;;;;;;;;4970142;28;20475;-62
2022/03/08 13:33:10;;;;;;;6.88;3.72;;;;;;;;;;4970502;28;20095;-63
2022/03/08 13:35:37;;;;;;;7.95;3.20;;;;;;;;;;4970041;28;20025;-63
2022/03/08 13:38:03;;;;;;;6.95;3.90;;;;;;;;;;4970085;28;20403;-62
2022/03/08 13:40:32;;;;;;;6.82;3.75;;;;;;;;;;4969857;28;20371;-62
2022/03/08 13:42:59;;;;;;;12.85;4.10;;;;;;;;;;4969340;28;20342;-64
2022/03/08 13:45:25;;;;;;;7.57;3.50;;;;;;;;;;4970077;28;20367;-63
2022/03/08 13:47:55;;;;;;;8.77;3.95;;;;;;;;;;4970820;28;20416;-63
2022/03/08 13:50:23;;;;;;;8.27;3.35;;;;;;;;;;4969929;28;20381;-64
2022/03/08 13:53:04;;;;;;;6.40;3.25;;;;;;;;;;4969667;28;20436;-62
2022/03/08 13:55:30;;;;;;;6.68;2.72;;;;;;;;;;4969513;28;20405;-63
2022/03/08 13:58:00;;;;;;;7.82;3.80;;;;;;;;;;4969760;28;20018;-62
2022/03/08 14:00:27;;;;;;;11.15;4.10;;;;;;;;;;4971163;28;20405;-63
2022/03/08 14:02:55;;;;;;;6.10;3.00;;;;;;;;;;4970478;28;20030;-62
2022/03/08 14:05:21;;;;;;;7.05;3.42;;;;;;;;;;4970676;28;20094;-62
2022/03/08 14:08:00;;;;;;;5.38;2.70;;;;;;;;;;4951669;28;20440;-63
2022/03/08 14:10:26;;;;;;;;;;;;;;;;;;4984568;28;20375;-63
2022/03/08 14:12:51;;;;;;;8.45;3.75;;;;;;;;;;4969640;28;19974;-62
2022/03/08 14:15:18;;;;;;;8.32;3.80;;;;;;;;;;4969743;28;20087;-62
2022/03/08 14:17:45;;;;;;;7.75;3.50;;;;;;;;;;4952122;28;20321;-63
2022/03/08 14:20:18;;;;;;;4.82;3.15;;;;;;;;;;4951760;28;20336;-62
2022/03/08 14:23:11;;;;;;;7.05;2.78;;;;;;;;;;4971216;28;20306;-62
2022/03/08 14:25:58;;;;;;;6.03;3.40;;;;;;;;;;4969084;28;20491;-62
2022/03/08 14:28:53;;;;;;;8.20;4.10;;;;;;;;;;4969954;28;20375;-63